createdAt,value
2018-01-22T00:01:03.988Z,97371.71
2018-01-22T00:02:08.671Z,97366.25
2018-01-22T00:03:13.334Z,97362.53
2018-01-22T00:04:17.938Z,97366.14
2018-01-22T00:05:22.637Z,97365.89
2018-01-22T00:06:27.556Z,97357.59
2018-01-22T00:07:32.180Z,97356.89
2018-01-22T00:08:37.021Z,97354.28
2018-01-22T00:09:41.668Z,97354.28
2018-01-22T00:10:46.306Z,97344.48
2018-01-22T00:11:51.471Z,97346.17
2018-01-22T00:12:56.172Z,97339.13
2018-01-22T00:14:00.861Z,97339.09
2018-01-22T00:15:05.556Z,97338.73
2018-01-22T00:16:10.300Z,97328.42
2018-01-22T00:17:15.053Z,97325.14
2018-01-22T00:18:20.232Z,97323.05
2018-01-22T00:19:24.862Z,97314.84
2018-01-22T00:20:29.541Z,97320.52
2018-01-22T00:21:34.207Z,97312.72
2018-01-22T00:22:39.007Z,97320.58
2018-01-22T00:23:43.668Z,97314.87
2018-01-22T00:24:48.770Z,97319.73
2018-01-22T00:25:53.374Z,97314.36
2018-01-22T00:26:57.988Z,97322.64
2018-01-22T00:28:02.681Z,97316.47
2018-01-22T00:29:07.432Z,97314.71
2018-01-22T00:30:12.188Z,97313.05
2018-01-22T00:31:17.382Z,97315.95
2018-01-22T00:32:22.013Z,97314.73
2018-01-22T00:33:26.742Z,97312.36
2018-01-22T00:34:31.367Z,97316.06
2018-01-22T00:35:36.122Z,97312.36
2018-01-22T00:36:40.819Z,97310.23
2018-01-22T00:37:46.049Z,97306.20
2018-01-22T00:38:50.730Z,97303.25
2018-01-22T00:39:55.465Z,97291.34
2018-01-22T00:41:00.208Z,97288.11
2018-01-22T00:42:04.904Z,97290.63
2018-01-22T00:43:09.649Z,97282.48
2018-01-22T00:44:14.784Z,97275.86
2018-01-22T00:45:19.549Z,97280.74
2018-01-22T00:46:24.329Z,97280.39
2018-01-22T00:47:29.116Z,97278.64
2018-01-22T00:48:33.838Z,97275.70
2018-01-22T00:49:38.613Z,97276.12
2018-01-22T00:50:43.712Z,97275.74
2018-01-22T00:51:48.458Z,97264.20
2018-01-22T00:52:53.138Z,97263.36
2018-01-22T00:53:57.796Z,97261.30
2018-01-22T00:55:02.516Z,97261.38
2018-01-22T00:56:07.158Z,97261.34
2018-01-22T00:57:12.438Z,97255.56
2018-01-22T00:58:17.188Z,97256.40
2018-01-22T00:59:21.847Z,97251.82
2018-01-22T01:00:26.583Z,97245.75
2018-01-22T01:01:31.257Z,97255.56
2018-01-22T01:02:35.886Z,97252.29
2018-01-22T01:03:40.932Z,97256.83
2018-01-22T01:04:45.589Z,97247.71
2018-01-22T01:05:50.299Z,97251.02
2018-01-22T01:06:54.956Z,97245.67
2018-01-22T01:07:59.637Z,97244.47
2018-01-22T01:09:04.447Z,97241.98
2018-01-22T01:10:09.519Z,97239.53
2018-01-22T01:11:14.218Z,97235.45
2018-01-22T01:12:18.930Z,97231.33
2018-01-22T01:13:23.603Z,97233.38
2018-01-22T01:14:28.269Z,97229.20
2018-01-22T01:15:32.949Z,97230.86
2018-01-22T01:16:38.101Z,97225.53
2018-01-22T01:17:42.777Z,97229.14
2018-01-22T01:18:47.467Z,97222.23
2018-01-22T01:19:52.164Z,97218.10
2018-01-22T01:20:56.804Z,97224.64
2018-01-22T01:22:01.561Z,97221.02
2018-01-22T01:23:07.140Z,97222.56
2018-01-22T01:24:11.924Z,97228.31
2018-01-22T01:25:16.638Z,97223.00
2018-01-22T01:26:21.328Z,97227.44
2018-01-22T01:27:26.003Z,97222.16
2018-01-22T01:28:30.722Z,97223.34
2018-01-22T01:29:35.905Z,97227.05
2018-01-22T01:30:40.712Z,97222.20
2018-01-22T01:31:45.375Z,97223.84
2018-01-22T01:32:50.080Z,97225.80
2018-01-22T01:33:54.903Z,97224.14
2018-01-22T01:34:59.671Z,97226.61
2018-01-22T01:36:04.822Z,97225.75
2018-01-22T01:37:09.561Z,97217.45
2018-01-22T01:38:14.229Z,97209.72
2018-01-22T01:39:18.851Z,97212.73
2018-01-22T01:40:23.495Z,97210.59
2018-01-22T01:41:28.089Z,97208.50
2018-01-22T01:42:33.042Z,97207.61
2018-01-22T01:43:37.578Z,97210.59
2018-01-22T01:44:42.153Z,97208.45
2018-01-22T01:45:46.682Z,97213.02
2018-01-22T01:46:51.286Z,97210.50
2018-01-22T01:47:55.946Z,97217.11
2018-01-22T01:49:05.207Z,97213.02
2018-01-22T01:50:09.842Z,97199.02
2018-01-22T01:51:14.486Z,97196.89
2018-01-22T01:52:19.130Z,97197.32
2018-01-22T01:53:23.876Z,97190.29
2018-01-22T01:54:28.537Z,97189.45
2018-01-22T01:55:33.512Z,97186.88
2018-01-22T01:56:38.249Z,97184.07
2018-01-22T01:57:42.884Z,97190.97
2018-01-22T01:58:47.575Z,97179.89
2018-01-22T01:59:52.206Z,97176.63
2018-01-22T02:00:56.850Z,97174.59
2018-01-22T02:02:02.880Z,97166.63
2018-01-22T02:03:07.508Z,97165.05
2018-01-22T02:04:12.253Z,97163.88
2018-01-22T02:05:16.976Z,97171.70
2018-01-22T02:06:21.682Z,97171.20
2018-01-22T02:07:26.329Z,97177.81
2018-01-22T02:08:31.378Z,97181.86
2018-01-22T02:09:36.076Z,97176.50
2018-01-22T02:10:40.732Z,97179.81
2018-01-22T02:11:45.397Z,97176.53
2018-01-22T02:12:50.243Z,97178.14
2018-01-22T02:13:54.997Z,97176.45
2018-01-22T02:15:00.332Z,97185.16
2018-01-22T02:16:05.544Z,97178.54
2018-01-22T02:17:10.205Z,97177.78
2018-01-22T02:18:14.866Z,97179.83
2018-01-22T02:19:19.522Z,97179.83
2018-01-22T02:20:24.153Z,97184.27
2018-01-22T02:21:29.131Z,97178.07
2018-01-22T02:22:33.771Z,97179.34
2018-01-22T02:23:38.460Z,97171.14
2018-01-22T02:24:43.128Z,97170.69
2018-01-22T02:25:47.927Z,97174.84
2018-01-22T02:26:52.748Z,97167.00
2018-01-22T02:27:57.888Z,97167.45
2018-01-22T02:29:02.539Z,97166.22
2018-01-22T02:30:07.246Z,97168.37
2018-01-22T02:31:11.858Z,97157.23
2018-01-22T02:32:16.554Z,97151.05
2018-01-22T02:33:21.178Z,97148.94
2018-01-22T02:34:26.172Z,97146.00
2018-01-22T02:35:30.927Z,97153.84
2018-01-22T02:36:35.671Z,97149.77
2018-01-22T02:37:40.354Z,97142.84
2018-01-22T02:38:45.039Z,97148.60
2018-01-22T02:39:49.713Z,97147.65
2018-01-22T02:40:54.657Z,97141.13
2018-01-22T02:41:59.408Z,97132.16
2018-01-22T02:43:03.989Z,97135.33
2018-01-22T02:44:08.743Z,97144.84
2018-01-22T02:45:13.417Z,97132.11
2018-01-22T02:46:18.280Z,97141.91
2018-01-22T02:47:23.410Z,97138.66
2018-01-22T02:48:28.098Z,97139.55
2018-01-22T02:49:32.755Z,97140.83
2018-01-22T02:50:37.740Z,97140.04
2018-01-22T02:51:42.408Z,97133.75
2018-01-22T02:52:47.268Z,97133.26
2018-01-22T02:53:52.414Z,97127.08
2018-01-22T02:54:57.246Z,97131.73
2018-01-22T02:56:02.010Z,97128.77
2018-01-22T02:57:06.822Z,97126.72
2018-01-22T02:58:11.603Z,97128.30
2018-01-22T02:59:16.433Z,97129.11
2018-01-22T03:00:21.555Z,97130.53
2018-01-22T03:01:26.305Z,97130.41
2018-01-22T03:02:31.196Z,97118.88
2018-01-22T03:03:35.955Z,97127.53
2018-01-22T03:04:40.673Z,97113.06
2018-01-22T03:05:45.453Z,97104.08
2018-01-22T03:06:50.645Z,97095.41
2018-01-22T03:07:55.376Z,97100.84
2018-01-22T03:09:00.103Z,97102.86
2018-01-22T03:10:04.870Z,97102.17
2018-01-22T03:11:09.661Z,97107.52
2018-01-22T03:12:14.396Z,97107.53
2018-01-22T03:13:19.588Z,97104.28
2018-01-22T03:14:24.372Z,97103.31
2018-01-22T03:15:29.105Z,97100.73
2018-01-22T03:16:33.779Z,97105.00
2018-01-22T03:17:38.484Z,97104.93
2018-01-22T03:18:43.203Z,97100.03
2018-01-22T03:19:48.125Z,97098.08
2018-01-22T03:20:52.872Z,97096.02
2018-01-22T03:21:57.656Z,97091.39
2018-01-22T03:23:02.361Z,97087.36
2018-01-22T03:24:07.088Z,97080.38
2018-01-22T03:25:11.817Z,97082.48
2018-01-22T03:26:17.877Z,97085.30
2018-01-22T03:27:22.453Z,97086.12
2018-01-22T03:28:27.106Z,97082.78
2018-01-22T03:29:31.771Z,97088.55
2018-01-22T03:30:36.477Z,97076.17
2018-01-22T03:31:41.165Z,97075.84
2018-01-22T03:32:46.216Z,97082.09
2018-01-22T03:33:50.906Z,97077.93
2018-01-22T03:34:55.634Z,97071.26
2018-01-22T03:36:00.406Z,97081.19
2018-01-22T03:37:05.085Z,97077.48
2018-01-22T03:38:09.834Z,97070.42
2018-01-22T03:39:14.968Z,97063.11
2018-01-22T03:40:19.677Z,97063.89
2018-01-22T03:41:24.374Z,97067.63
2018-01-22T03:42:29.061Z,97069.69
2018-01-22T03:43:33.741Z,97066.17
2018-01-22T03:44:38.448Z,97072.36
2018-01-22T03:45:43.626Z,97072.29
2018-01-22T03:46:48.337Z,97078.16
2018-01-22T03:47:53.022Z,97067.58
2018-01-22T03:48:57.826Z,97063.84
2018-01-22T03:50:02.474Z,97072.90
2018-01-22T03:51:07.158Z,97079.48
2018-01-22T03:52:12.354Z,97081.45
2018-01-22T03:53:17.135Z,97079.03
2018-01-22T03:54:21.860Z,97068.77
2018-01-22T03:55:26.599Z,97066.61
2018-01-22T03:56:31.310Z,97068.70
2018-01-22T03:57:36.036Z,97064.13
2018-01-22T03:58:41.113Z,97068.20
2018-01-22T03:59:45.814Z,97065.73
2018-01-22T04:00:50.529Z,97069.41
2018-01-22T04:01:55.218Z,97069.86
2018-01-22T04:02:59.889Z,97068.98
2018-01-22T04:04:04.675Z,97072.31
2018-01-22T04:05:09.767Z,97076.84
2018-01-22T04:06:14.433Z,97075.20
2018-01-22T04:07:19.092Z,97077.63
2018-01-22T04:08:23.798Z,97090.81
2018-01-22T04:09:28.573Z,97085.87
2018-01-22T04:10:33.245Z,97082.20
2018-01-22T04:11:38.323Z,97083.93
2018-01-22T04:12:42.989Z,97070.36
2018-01-22T04:13:47.757Z,97066.59
2018-01-22T04:14:52.458Z,97065.77
2018-01-22T04:15:57.122Z,97068.27
2018-01-22T04:17:01.823Z,97067.55
2018-01-22T04:18:06.952Z,97061.84
2018-01-22T04:19:12.381Z,97068.22
2018-01-22T04:20:17.060Z,97061.35
2018-01-22T04:21:21.744Z,97063.35
2018-01-22T04:22:26.439Z,97062.95
2018-01-22T04:23:31.219Z,97067.95
2018-01-22T04:24:36.512Z,97063.89
2018-01-22T04:25:41.310Z,97058.56
2018-01-22T04:26:46.102Z,97054.09
2018-01-22T04:27:50.878Z,97057.80
2018-01-22T04:28:55.643Z,97048.33
2018-01-22T04:30:00.369Z,97050.70
2018-01-22T04:31:05.442Z,97045.72
2018-01-22T04:32:10.229Z,97046.19
2018-01-22T04:33:14.947Z,97041.63
2018-01-22T04:34:19.626Z,97034.67
2018-01-22T04:35:24.426Z,97035.36
2018-01-22T04:36:29.230Z,97036.28
2018-01-22T04:37:34.363Z,97036.58
2018-01-22T04:38:39.163Z,97030.47
2018-01-22T04:39:43.903Z,97032.17
2018-01-22T04:40:48.725Z,97024.73
2018-01-22T04:41:53.364Z,97028.84
2018-01-22T04:42:58.119Z,97031.36
2018-01-22T04:44:02.893Z,97028.47
2018-01-22T04:45:07.702Z,97027.20
2018-01-22T04:46:12.464Z,97024.72
2018-01-22T04:47:17.213Z,97021.50
2018-01-22T04:48:21.971Z,97026.47
2018-01-22T04:49:27.126Z,97023.95
2018-01-22T04:50:31.941Z,97025.91
2018-01-22T04:51:36.819Z,97023.41
2018-01-22T04:52:41.528Z,97022.67
2018-01-22T04:53:46.388Z,97022.13
2018-01-22T04:54:51.059Z,97017.34
2018-01-22T04:55:56.245Z,97013.27
2018-01-22T04:57:00.892Z,97006.64
2018-01-22T04:58:05.548Z,97005.40
2018-01-22T04:59:10.282Z,97000.48
2018-01-22T05:00:15.090Z,96999.16
2018-01-22T05:01:19.906Z,97002.05
2018-01-22T05:02:25.183Z,96991.66
2018-01-22T05:03:30.013Z,96992.09
2018-01-22T05:04:34.882Z,96997.02
2018-01-22T05:05:39.601Z,96994.49
2018-01-22T05:06:44.351Z,97002.67
2018-01-22T05:07:49.203Z,97009.01
2018-01-22T05:08:54.535Z,97010.65
2018-01-22T05:09:59.263Z,97009.41
2018-01-22T05:11:04.040Z,97014.28
2018-01-22T05:12:08.836Z,97012.20
2018-01-22T05:13:13.615Z,97008.92
2018-01-22T05:14:18.392Z,97002.00
2018-01-22T05:15:23.630Z,97005.20
2018-01-22T05:16:28.415Z,96996.48
2018-01-22T05:17:33.178Z,96998.20
2018-01-22T05:18:38.081Z,96992.76
2018-01-22T05:19:42.821Z,96998.13
2018-01-22T05:20:47.655Z,96984.63
2018-01-22T05:21:52.983Z,96992.05
2018-01-22T05:22:57.759Z,96982.16
2018-01-22T05:24:02.548Z,96984.97
2018-01-22T05:25:07.341Z,96978.81
2018-01-22T05:26:12.230Z,96978.03
2018-01-22T05:27:16.977Z,96977.20
2018-01-22T05:28:22.293Z,96969.42
2018-01-22T05:29:27.076Z,96964.51
2018-01-22T05:30:31.902Z,96967.36
2018-01-22T05:31:37.047Z,96963.73
2018-01-22T05:32:41.785Z,96959.49
2018-01-22T05:33:46.522Z,96955.31
2018-01-22T05:34:51.729Z,96955.31
2018-01-22T05:35:56.480Z,96953.30
2018-01-22T05:37:01.381Z,96955.31
2018-01-22T05:38:06.181Z,96954.95
2018-01-22T05:39:10.968Z,96950.04
2018-01-22T05:40:15.746Z,96944.16
2018-01-22T05:41:20.859Z,96944.27
2018-01-22T05:42:25.637Z,96938.00
2018-01-22T05:43:30.454Z,96931.60
2018-01-22T05:44:35.297Z,96926.33
2018-01-22T05:45:40.125Z,96925.45
2018-01-22T05:46:44.824Z,96920.56
2018-01-22T05:47:49.578Z,96914.86
2018-01-22T05:48:54.246Z,96919.80
2018-01-22T05:49:59.080Z,96924.72
2018-01-22T05:51:03.782Z,96921.75
2018-01-22T05:52:08.575Z,96929.16
2018-01-22T05:53:13.357Z,96927.50
2018-01-22T05:54:18.362Z,96923.34
2018-01-22T05:55:23.033Z,96927.47
2018-01-22T05:56:27.812Z,96926.26
2018-01-22T05:57:32.610Z,96928.30
2018-01-22T05:58:37.512Z,96934.81
2018-01-22T05:59:42.236Z,96932.67
2018-01-22T06:00:47.458Z,96927.70
2018-01-22T06:01:52.125Z,96925.28
2018-01-22T06:02:56.810Z,96922.02
2018-01-22T06:04:01.474Z,96931.84
2018-01-22T06:05:06.142Z,96928.92
2018-01-22T06:06:12.579Z,96926.45
2018-01-22T06:07:17.756Z,96924.78
2018-01-22T06:08:22.486Z,96928.44
2018-01-22T06:09:27.233Z,96919.45
2018-01-22T06:10:32.084Z,96918.25
2018-01-22T06:11:36.772Z,96921.94
2018-01-22T06:12:41.583Z,96921.05
2018-01-22T06:13:48.204Z,96926.67
2018-01-22T06:14:53.643Z,96923.05
2018-01-22T06:15:58.547Z,96911.05
2018-01-22T06:17:04.111Z,96907.77
2018-01-22T06:18:08.832Z,96923.40
2018-01-22T06:19:13.727Z,96920.14
2018-01-22T06:20:18.763Z,96915.61
2018-01-22T06:21:23.577Z,96916.77
2018-01-22T06:22:28.382Z,96919.14
2018-01-22T06:23:33.828Z,96919.89
2018-01-22T06:24:39.488Z,96913.39
2018-01-22T06:25:44.493Z,96914.67
2018-01-22T06:26:49.547Z,96918.33
2018-01-22T06:27:55.092Z,96916.77
2018-01-22T06:29:00.459Z,96916.73
2018-01-22T06:30:05.323Z,96914.75
2018-01-22T06:31:10.794Z,96918.43
2018-01-22T06:32:16.142Z,96917.17
2018-01-22T06:33:21.068Z,96917.09
2018-01-22T06:34:26.417Z,96906.88
2018-01-22T06:35:31.155Z,96917.52
2018-01-22T06:36:35.901Z,96922.11
2018-01-22T06:37:40.589Z,96916.72
2018-01-22T06:38:45.732Z,96923.70
2018-01-22T06:39:50.558Z,96919.44
2018-01-22T06:40:55.359Z,96919.48
2018-01-22T06:42:00.131Z,96918.98
2018-01-22T06:43:04.851Z,96917.32
2018-01-22T06:44:09.652Z,96923.15
2018-01-22T06:45:14.789Z,96918.23
2018-01-22T06:46:19.532Z,96925.19
2018-01-22T06:47:24.888Z,96927.59
2018-01-22T06:48:29.679Z,96928.98
2018-01-22T06:49:34.357Z,96925.88
2018-01-22T06:50:39.157Z,96932.17
2018-01-22T06:51:44.330Z,96925.55
2018-01-22T06:52:49.015Z,96926.78
2018-01-22T06:53:54.438Z,96932.10
2018-01-22T06:54:59.123Z,96930.77
2018-01-22T06:56:03.825Z,96929.58
2018-01-22T06:57:08.544Z,96931.30
2018-01-22T06:58:14.010Z,96932.03
2018-01-22T06:59:20.282Z,96929.98
2018-01-22T07:00:25.683Z,96935.77
2018-01-22T07:01:32.568Z,96935.73
2018-01-22T07:02:37.428Z,96938.18
2018-01-22T07:03:42.490Z,96932.78
2018-01-22T07:04:47.238Z,96934.91
2018-01-22T07:05:51.936Z,96931.59
2018-01-22T07:06:56.757Z,96926.25
2018-01-22T07:08:01.555Z,96926.23
2018-01-22T07:09:06.564Z,96929.53
2018-01-22T07:10:11.782Z,96929.94
2018-01-22T07:11:16.546Z,96935.69
2018-01-22T07:12:21.658Z,96936.11
2018-01-22T07:13:26.446Z,96945.55
2018-01-22T07:14:31.023Z,96940.18
2018-01-22T07:15:36.413Z,96938.81
2018-01-22T07:16:41.488Z,96936.27
2018-01-22T07:17:46.096Z,96939.45
2018-01-22T07:18:50.777Z,96942.67
2018-01-22T07:19:55.838Z,96943.51
2018-01-22T07:21:02.422Z,96949.13
2018-01-22T07:22:08.117Z,96945.34
2018-01-22T07:23:14.434Z,96939.59
2018-01-22T07:24:19.336Z,96952.31
2018-01-22T07:25:24.078Z,96951.80
2018-01-22T07:26:28.770Z,96945.27
2018-01-22T07:27:33.595Z,96947.72
2018-01-22T07:28:39.011Z,96945.45
2018-01-22T07:29:44.385Z,96940.45
2018-01-22T07:30:49.220Z,96937.25
2018-01-22T07:31:53.937Z,96930.19
2018-01-22T07:32:59.174Z,96930.20
2018-01-22T07:34:05.196Z,96933.62
2018-01-22T07:35:10.608Z,96922.79
2018-01-22T07:36:16.469Z,96930.16
2018-01-22T07:37:21.234Z,96924.61
2018-01-22T07:38:25.962Z,96924.45
2018-01-22T07:39:30.948Z,96923.27
2018-01-22T07:40:35.750Z,96913.58
2018-01-22T07:41:40.429Z,96921.32
2018-01-22T07:42:45.791Z,96917.19
2018-01-22T07:43:50.629Z,96918.42
2018-01-22T07:44:55.438Z,96904.44
2018-01-22T07:46:00.346Z,96903.50
2018-01-22T07:47:05.145Z,96906.00
2018-01-22T07:48:10.031Z,96909.36
2018-01-22T07:49:16.222Z,96908.00
2018-01-22T07:50:21.065Z,96908.80
2018-01-22T07:51:25.905Z,96915.69
2018-01-22T07:52:30.717Z,96916.09
2018-01-22T07:53:35.562Z,96913.52
2018-01-22T07:54:40.380Z,96918.33
2018-01-22T07:55:45.626Z,96911.63
2018-01-22T07:56:50.395Z,96918.24
2018-01-22T07:57:55.154Z,96924.45
2018-01-22T07:59:00.856Z,96928.52
2018-01-22T08:00:05.559Z,96931.75
2018-01-22T08:01:10.497Z,96925.05
2018-01-22T08:02:15.685Z,96927.47
2018-01-22T08:03:20.458Z,96923.22
2018-01-22T08:04:25.210Z,96930.08
2018-01-22T08:05:29.806Z,96937.31
2018-01-22T08:06:34.488Z,96938.55
2018-01-22T08:07:39.358Z,96938.13
2018-01-22T08:08:44.514Z,96937.74
2018-01-22T08:09:49.350Z,96927.52
2018-01-22T08:10:54.072Z,96931.59
2018-01-22T08:11:58.822Z,96926.98
2018-01-22T08:13:03.598Z,96931.48
2018-01-22T08:14:08.366Z,96931.91
2018-01-22T08:15:13.477Z,96933.41
2018-01-22T08:16:18.206Z,96942.05
2018-01-22T08:17:23.103Z,96928.44
2018-01-22T08:18:27.905Z,96939.38
2018-01-22T08:19:32.645Z,96945.06
2018-01-22T08:20:37.278Z,96934.30
2018-01-22T08:21:42.335Z,96932.22
2018-01-22T08:22:47.001Z,96927.67
2018-01-22T08:23:51.819Z,96926.30
2018-01-22T08:24:56.608Z,96931.70
2018-01-22T08:26:01.455Z,96929.13
2018-01-22T08:27:06.186Z,96930.30
2018-01-22T08:28:11.383Z,96918.98
2018-01-22T08:29:15.947Z,96914.81
2018-01-22T08:30:20.750Z,96917.70
2018-01-22T08:31:26.088Z,96921.35
2018-01-22T08:32:30.997Z,96918.91
2018-01-22T08:33:35.841Z,96918.62
2018-01-22T08:34:40.903Z,96919.11
2018-01-22T08:35:45.582Z,96923.72
2018-01-22T08:36:50.337Z,96917.70
2018-01-22T08:37:55.071Z,96914.30
2018-01-22T08:38:59.800Z,96915.56
2018-01-22T08:40:04.642Z,96917.23
2018-01-22T08:41:10.022Z,96913.90
2018-01-22T08:42:14.883Z,96909.86
2018-01-22T08:43:19.607Z,96914.33
2018-01-22T08:44:24.289Z,96913.06
2018-01-22T08:45:29.002Z,96912.23
2018-01-22T08:46:33.700Z,96915.59
2018-01-22T08:47:38.886Z,96911.85
2018-01-22T08:48:43.785Z,96912.95
2018-01-22T08:49:48.552Z,96913.19
2018-01-22T08:50:53.319Z,96907.48
2018-01-22T08:51:58.591Z,96907.68
2018-01-22T08:53:03.463Z,96906.77
2018-01-22T08:54:08.671Z,96900.48
2018-01-22T08:55:13.533Z,96911.05
2018-01-22T08:56:18.280Z,96912.42
2018-01-22T08:57:23.088Z,96914.03
2018-01-22T08:58:27.954Z,96904.05
2018-01-22T08:59:32.884Z,96905.66
2018-01-22T09:00:38.087Z,96910.59
2018-01-22T09:01:42.996Z,96915.63
2018-01-22T09:02:47.854Z,96922.50
2018-01-22T09:03:52.752Z,96925.78
2018-01-22T09:04:58.496Z,96922.88
2018-01-22T09:06:05.198Z,96920.38
2018-01-22T09:07:10.662Z,96922.68
2018-01-22T09:08:16.279Z,96932.67
2018-01-22T09:09:21.013Z,96936.64
2018-01-22T09:10:25.744Z,96933.46
2018-01-22T09:11:30.662Z,96933.41
2018-01-22T09:12:35.417Z,96937.33
2018-01-22T09:13:40.821Z,96933.02
2018-01-22T09:14:46.026Z,96923.14
2018-01-22T09:15:50.923Z,96930.25
2018-01-22T09:16:55.790Z,96931.17
2018-01-22T09:18:00.815Z,96934.28
2018-01-22T09:19:05.739Z,96944.56
2018-01-22T09:20:10.949Z,96945.48
2018-01-22T09:21:15.962Z,96941.58
2018-01-22T09:22:20.693Z,96951.39
2018-01-22T09:23:25.488Z,96956.83
2018-01-22T09:24:30.770Z,96953.17
2018-01-22T09:25:36.308Z,96952.39
2018-01-22T09:26:42.024Z,96949.34
2018-01-22T09:27:47.380Z,96954.25
2018-01-22T09:28:52.242Z,96956.56
2018-01-22T09:29:57.236Z,96958.84
2018-01-22T09:31:01.823Z,96963.48
2018-01-22T09:32:07.070Z,96957.80
2018-01-22T09:33:12.282Z,96952.66
2018-01-22T09:34:17.466Z,96953.44
2018-01-22T09:35:22.818Z,96964.09
2018-01-22T09:36:27.907Z,96963.33
2018-01-22T09:37:32.666Z,96965.14
2018-01-22T09:38:37.362Z,96952.93
2018-01-22T09:39:42.405Z,96956.95
2018-01-22T09:40:47.189Z,96968.59
2018-01-22T09:41:52.810Z,96968.73
2018-01-22T09:42:57.661Z,96966.03
2018-01-22T09:44:02.961Z,96962.16
2018-01-22T09:45:07.966Z,96970.67
2018-01-22T09:46:13.954Z,96963.61
2018-01-22T09:47:19.353Z,96958.90
2018-01-22T09:48:24.157Z,96971.25
2018-01-22T09:49:28.992Z,96965.35
2018-01-22T09:50:33.923Z,96973.91
2018-01-22T09:51:38.823Z,96965.55
2018-01-22T09:52:44.926Z,96973.16
2018-01-22T09:53:49.755Z,96970.30
2018-01-22T09:54:54.990Z,96960.69
2018-01-22T09:55:59.695Z,96959.84
2018-01-22T09:57:05.254Z,96965.58
2018-01-22T09:58:10.898Z,96964.63
2018-01-22T09:59:16.554Z,96965.75
2018-01-22T10:00:22.502Z,96963.16
2018-01-22T10:01:27.200Z,96963.77
2018-01-22T10:02:31.911Z,96968.32
2018-01-22T10:03:36.692Z,96968.84
2018-01-22T10:04:41.225Z,96965.98
2018-01-22T10:05:47.132Z,96971.43
2018-01-22T10:06:51.846Z,96969.67
2018-01-22T10:07:56.544Z,96973.88
2018-01-22T10:09:01.338Z,96977.54
2018-01-22T10:10:05.985Z,96976.56
2018-01-22T10:11:10.721Z,96974.00
2018-01-22T10:12:15.811Z,96971.38
2018-01-22T10:13:20.540Z,96964.78
2018-01-22T10:14:25.248Z,96972.67
2018-01-22T10:15:29.900Z,96968.84
2018-01-22T10:16:34.763Z,96970.22
2018-01-22T10:17:39.491Z,96973.91
2018-01-22T10:18:44.649Z,96979.73
2018-01-22T10:19:49.349Z,96981.39
2018-01-22T10:20:54.033Z,96982.31
2018-01-22T10:21:58.767Z,96987.94
2018-01-22T10:23:03.523Z,96990.63
2018-01-22T10:24:08.197Z,96985.66
2018-01-22T10:25:13.230Z,96994.16
2018-01-22T10:26:18.035Z,96994.16
2018-01-22T10:27:23.148Z,96999.30
2018-01-22T10:28:27.995Z,96998.17
2018-01-22T10:29:33.226Z,96995.42
2018-01-22T10:30:37.959Z,96999.31
2018-01-22T10:31:43.069Z,96994.16
2018-01-22T10:32:47.819Z,96999.38
2018-01-22T10:33:52.859Z,97004.19
2018-01-22T10:34:57.350Z,97000.16
2018-01-22T10:36:01.965Z,96998.57
2018-01-22T10:37:06.721Z,96995.00
2018-01-22T10:38:11.753Z,96997.67
2018-01-22T10:39:16.854Z,96999.98
2018-01-22T10:40:21.541Z,97004.51
2018-01-22T10:41:26.309Z,97000.47
2018-01-22T10:42:31.106Z,96988.91
2018-01-22T10:43:35.982Z,96995.09
2018-01-22T10:44:41.127Z,97001.69
2018-01-22T10:45:46.125Z,96993.17
2018-01-22T10:46:50.880Z,96988.48
2018-01-22T10:47:55.747Z,96984.67
2018-01-22T10:49:00.576Z,96994.06
2018-01-22T10:50:05.312Z,96989.36
2018-01-22T10:51:10.520Z,96984.50
2018-01-22T10:52:15.269Z,96982.94
2018-01-22T10:53:19.923Z,96979.12
2018-01-22T10:54:24.735Z,96978.03
2018-01-22T10:55:29.541Z,96983.42
2018-01-22T10:56:34.288Z,96976.30
2018-01-22T10:57:39.475Z,96973.52
2018-01-22T10:58:44.112Z,96979.53
2018-01-22T10:59:48.861Z,96976.80
2018-01-22T11:00:53.491Z,96975.09
2018-01-22T11:01:58.188Z,96972.23
2018-01-22T11:03:02.962Z,96986.59
2018-01-22T11:04:07.875Z,96981.94
2018-01-22T11:05:13.480Z,96980.61
2018-01-22T11:06:18.132Z,96978.28
2018-01-22T11:07:22.676Z,96979.83
2018-01-22T11:08:27.223Z,96982.41
2018-01-22T11:09:31.925Z,96985.55
2018-01-22T11:10:37.126Z,96971.43
2018-01-22T11:11:41.840Z,96981.09
2018-01-22T11:12:46.552Z,96988.98
2018-01-22T11:13:51.257Z,96993.29
2018-01-22T11:14:55.912Z,96990.34
2018-01-22T11:16:04.839Z,96990.69
2018-01-22T11:17:09.661Z,96994.16
2018-01-22T11:18:14.512Z,96991.09
2018-01-22T11:19:19.405Z,96988.09
2018-01-22T11:20:24.228Z,96986.47
2018-01-22T11:21:29.783Z,96989.39
2018-01-22T11:22:35.142Z,96982.31
2018-01-22T11:23:42.387Z,96984.33
2018-01-22T11:24:47.253Z,96984.92
2018-01-22T11:25:52.069Z,96975.63
2018-01-22T11:26:56.919Z,96973.13
2018-01-22T11:28:01.690Z,96976.39
2018-01-22T11:29:06.980Z,96975.95
2018-01-22T11:30:11.792Z,96972.34
2018-01-22T11:31:16.519Z,96965.38
2018-01-22T11:32:21.415Z,96971.02
2018-01-22T11:33:26.217Z,96973.34
2018-01-22T11:34:30.972Z,96973.02
2018-01-22T11:35:36.278Z,96970.75
2018-01-22T11:36:41.076Z,96970.78
2018-01-22T11:37:47.055Z,96968.36
2018-01-22T11:38:51.838Z,96972.73
2018-01-22T11:39:56.625Z,96973.61
2018-01-22T11:41:01.410Z,96975.41
2018-01-22T11:42:06.957Z,96972.98
2018-01-22T11:43:11.757Z,96972.70
2018-01-22T11:44:16.586Z,96969.98
2018-01-22T11:45:21.328Z,96971.96
2018-01-22T11:46:26.088Z,96967.44
2018-01-22T11:47:30.881Z,96968.24
2018-01-22T11:48:40.814Z,96963.34
2018-01-22T11:49:46.145Z,96961.55
2018-01-22T11:50:50.940Z,96960.58
2018-01-22T11:51:55.792Z,96963.24
2018-01-22T11:53:00.673Z,96967.09
2018-01-22T11:54:05.551Z,96967.56
2018-01-22T11:55:10.858Z,96969.11
2018-01-22T11:56:15.685Z,96968.14
2018-01-22T11:57:20.577Z,96965.81
2018-01-22T11:58:25.351Z,96967.08
2018-01-22T11:59:30.280Z,96963.89
2018-01-22T12:00:35.165Z,96973.17
2018-01-22T12:01:40.346Z,96970.94
2018-01-22T12:02:45.254Z,96973.17
2018-01-22T12:03:50.059Z,96968.64
2018-01-22T12:04:55.006Z,96968.64
2018-01-22T12:05:59.828Z,96962.56
2018-01-22T12:07:04.848Z,96968.92
2018-01-22T12:08:10.256Z,96964.77
2018-01-22T12:09:15.435Z,96964.27
2018-01-22T12:10:20.305Z,96975.50
2018-01-22T12:11:25.101Z,96962.69
2018-01-22T12:12:29.786Z,96969.73
2018-01-22T12:13:34.534Z,96969.52
2018-01-22T12:14:40.032Z,96972.61
2018-01-22T12:15:44.862Z,96973.44
2018-01-22T12:16:49.606Z,96967.36
2018-01-22T12:17:54.523Z,96974.73
2018-01-22T12:18:59.300Z,96973.48
2018-01-22T12:20:04.016Z,96968.49
2018-01-22T12:21:09.135Z,96974.20
2018-01-22T12:22:13.846Z,96970.07
2018-01-22T12:23:18.601Z,96973.70
2018-01-22T12:24:23.446Z,96971.89
2018-01-22T12:25:28.305Z,96967.63
2018-01-22T12:26:33.950Z,96968.91
2018-01-22T12:27:39.242Z,96963.58
2018-01-22T12:28:44.383Z,96963.11
2018-01-22T12:29:49.144Z,96968.66
2018-01-22T12:30:53.922Z,96967.83
2018-01-22T12:31:58.846Z,96965.80
2018-01-22T12:33:03.728Z,96969.25
2018-01-22T12:34:09.250Z,96966.17
2018-01-22T12:35:14.062Z,96964.66
2018-01-22T12:36:18.842Z,96966.20
2018-01-22T12:37:23.574Z,96973.19
2018-01-22T12:38:28.612Z,96971.67
2018-01-22T12:39:33.429Z,96972.38
2018-01-22T12:40:38.802Z,96973.73
2018-01-22T12:41:46.716Z,96975.80
2018-01-22T12:42:51.670Z,96976.00